Pagina principală
METAR-TAF:

METAR-TAF

Aeroporturi :

Idaho Falls, Idaho, Statele Unite ale Americii

Latitudine: 43-31-15N, longitudine: 112-03-58W, elevație: 1445 m

Observații meteo curente

Raportul a fost făcut în urmă cu 42 de minute, la 10:53 UTC
Vânt 5 kt de la Nord
Temperatură 5°C
Umiditate 75%
Presiune 1022 hPa
Vizibilitate: 16.1 km
Cer senin

METAR: KIDA 281053Z AUTO 35005KT 10SM CLR 05/01 A3017 RMK AO2 SLP195 T00500011

Ora: 05:35 (11:35 UTC)

Prognoză

Raportul a fost făcut în urmă cu 6 ore și 15 de minute, la 05:20 UTC
Prognoză valabilă de la 28 ora 06 UTC la 29 ora 06 UTC
Vânt 6 kt din direcții variabile
Vizibilitate: 10 km
Cer senin
De la 28 ora 2200 UTC
Vânt 10 kt de la Sud/Sud-vest cu rafale de până la 18 kt
Vizibilitate: 10 km
Nori împrăștiați la o înălțime de 6000 picior, Cumulonimbus.
Nori fragmentați la o înălțime de 12000 picior
oraj în apropiere,

TAF: KIDA 280520Z 2806/2906 VRB06KT P6SM SKC FM282200 21010G18KT P6SM VCTS SCT060CB BKN120

Observații și prognoze meteo pentru peste 4.000 de aeroporturi (rapoarte METAR și TAF).

Stațiile disponibile sunt reprezentate pe hartă prin puncte galbene și roșii.

Țineți indicatorul mouse-ului pe punctul dorit pentru a vedea denumirea stației.

Apoi, faceți clic pentru a vedea observațiile și prognozele meteorologice.

Pentru a schimba harta: Pentru mărire, faceți clic pe butoanele verzi cu cruce neagră; pentru micșorare, pe butonul verde cu o liniuță; pentru hărți învecinate, pe săgețile verzi.


METAR-TAF: